sensor_id;sensor_type;location;lat;lon;timestamp;P1;durP1;ratioP1;P2;durP2;ratioP2
57891;SDS011;43708;48.828;9.166;2023-04-15T00:03:44;0.70;;;0.50;;
57891;SDS011;43708;48.828;9.166;2023-04-15T00:06:13;0.95;;;0.68;;
57891;SDS011;43708;48.828;9.166;2023-04-15T00:08:44;0.98;;;0.70;;
57891;SDS011;43708;48.828;9.166;2023-04-15T00:11:10;0.88;;;0.43;;
57891;SDS011;43708;48.828;9.166;2023-04-15T00:13:36;0.90;;;0.50;;
57891;SDS011;43708;48.828;9.166;2023-04-15T00:16:03;0.60;;;0.50;;
57891;SDS011;43708;48.828;9.166;2023-04-15T00:18:30;0.73;;;0.60;;
57891;SDS011;43708;48.828;9.166;2023-04-15T00:20:57;0.70;;;0.60;;
57891;SDS011;43708;48.828;9.166;2023-04-15T00:23:23;0.55;;;0.40;;
57891;SDS011;43708;48.828;9.166;2023-04-15T00:25:49;1.00;;;0.65;;
57891;SDS011;43708;48.828;9.166;2023-04-15T00:28:15;0.63;;;0.50;;
57891;SDS011;43708;48.828;9.166;2023-04-15T00:30:41;0.60;;;0.45;;
57891;SDS011;43708;48.828;9.166;2023-04-15T00:33:09;0.80;;;0.70;;
57891;SDS011;43708;48.828;9.166;2023-04-15T00:35:34;0.77;;;0.60;;
57891;SDS011;43708;48.828;9.166;2023-04-15T00:38:01;0.70;;;0.50;;
57891;SDS011;43708;48.828;9.166;2023-04-15T00:40:27;0.50;;;0.50;;
57891;SDS011;43708;48.828;9.166;2023-04-15T00:42:53;1.95;;;0.40;;
57891;SDS011;43708;48.828;9.166;2023-04-15T00:45:19;0.45;;;0.45;;
57891;SDS011;43708;48.828;9.166;2023-04-15T00:47:45;0.80;;;0.70;;
57891;SDS011;43708;48.828;9.166;2023-04-15T00:50:11;0.93;;;0.50;;
57891;SDS011;43708;48.828;9.166;2023-04-15T00:52:37;0.60;;;0.47;;
57891;SDS011;43708;48.828;9.166;2023-04-15T00:55:03;0.50;;;0.50;;
57891;SDS011;43708;48.828;9.166;2023-04-15T00:57:29;0.50;;;0.45;;
57891;SDS011;43708;48.828;9.166;2023-04-15T00:59:55;0.77;;;0.60;;
57891;SDS011;43708;48.828;9.166;2023-04-15T01:02:22;0.40;;;0.40;;
57891;SDS011;43708;48.828;9.166;2023-04-15T01:04:48;0.40;;;0.35;;
57891;SDS011;43708;48.828;9.166;2023-04-15T01:07:13;1.70;;;0.70;;
57891;SDS011;43708;48.828;9.166;2023-04-15T01:09:39;0.60;;;0.40;;
57891;SDS011;43708;48.828;9.166;2023-04-15T01:12:06;0.50;;;0.38;;
57891;SDS011;43708;48.828;9.166;2023-04-15T01:14:35;0.63;;;0.60;;
57891;SDS011;43708;48.828;9.166;2023-04-15T01:17:01;0.90;;;0.77;;
57891;SDS011;43708;48.828;9.166;2023-04-15T01:19:27;0.40;;;0.35;;
57891;SDS011;43708;48.828;9.166;2023-04-15T01:21:52;0.68;;;0.50;;
57891;SDS011;43708;48.828;9.166;2023-04-15T01:24:19;0.50;;;0.50;;
57891;SDS011;43708;48.828;9.166;2023-04-15T01:26:45;0.45;;;0.45;;
57891;SDS011;43708;48.828;9.166;2023-04-15T01:29:11;0.50;;;0.40;;
57891;SDS011;43708;48.828;9.166;2023-04-15T01:31:37;0.40;;;0.40;;
57891;SDS011;43708;48.828;9.166;2023-04-15T01:34:03;0.90;;;0.50;;
57891;SDS011;43708;48.828;9.166;2023-04-15T01:36:28;0.65;;;0.52;;
57891;SDS011;43708;48.828;9.166;2023-04-15T01:38:56;0.70;;;0.60;;
57891;SDS011;43708;48.828;9.166;2023-04-15T01:41:25;0.77;;;0.60;;
57891;SDS011;43708;48.828;9.166;2023-04-15T01:43:52;0.40;;;0.40;;
57891;SDS011;43708;48.828;9.166;2023-04-15T01:46:17;0.60;;;0.50;;
57891;SDS011;43708;48.828;9.166;2023-04-15T01:48:43;0.50;;;0.45;;
57891;SDS011;43708;48.828;9.166;2023-04-15T01:51:10;0.70;;;0.60;;
57891;SDS011;43708;48.828;9.166;2023-04-15T01:53:36;0.50;;;0.47;;
57891;SDS011;43708;48.828;9.166;2023-04-15T01:56:01;0.70;;;0.47;;
57891;SDS011;43708;48.828;9.166;2023-04-15T01:58:29;0.43;;;0.40;;
57891;SDS011;43708;48.828;9.166;2023-04-15T02:00:55;0.50;;;0.40;;
57891;SDS011;43708;48.828;9.166;2023-04-15T02:03:21;0.70;;;0.50;;
57891;SDS011;43708;48.828;9.166;2023-04-15T02:05:47;0.60;;;0.45;;
57891;SDS011;43708;48.828;9.166;2023-04-15T02:08:15;0.52;;;0.50;;
57891;SDS011;43708;48.828;9.166;2023-04-15T02:10:41;0.50;;;0.50;;
57891;SDS011;43708;48.828;9.166;2023-04-15T02:13:07;0.57;;;0.40;;
57891;SDS011;43708;48.828;9.166;2023-04-15T02:15:33;0.35;;;0.35;;
57891;SDS011;43708;48.828;9.166;2023-04-15T02:18:00;0.57;;;0.50;;
57891;SDS011;43708;48.828;9.166;2023-04-15T02:20:26;0.50;;;0.50;;
57891;SDS011;43708;48.828;9.166;2023-04-15T02:22:52;0.50;;;0.40;;
57891;SDS011;43708;48.828;9.166;2023-04-15T02:25:17;0.40;;;0.40;;
57891;SDS011;43708;48.828;9.166;2023-04-15T02:27:44;1.67;;;0.50;;
57891;SDS011;43708;48.828;9.166;2023-04-15T02:30:11;0.60;;;0.40;;
57891;SDS011;43708;48.828;9.166;2023-04-15T02:32:37;0.40;;;0.40;;
57891;SDS011;43708;48.828;9.166;2023-04-15T02:35:04;0.32;;;0.25;;
57891;SDS011;43708;48.828;9.166;2023-04-15T02:37:30;2.15;;;0.52;;
57891;SDS011;43708;48.828;9.166;2023-04-15T02:39:57;0.47;;;0.47;;
57891;SDS011;43708;48.828;9.166;2023-04-15T02:42:23;0.70;;;0.55;;
57891;SDS011;43708;48.828;9.166;2023-04-15T02:44:51;0.47;;;0.47;;
57891;SDS011;43708;48.828;9.166;2023-04-15T02:47:18;0.57;;;0.45;;
57891;SDS011;43708;48.828;9.166;2023-04-15T02:49:44;0.80;;;0.40;;
57891;SDS011;43708;48.828;9.166;2023-04-15T02:52:10;0.55;;;0.40;;
57891;SDS011;43708;48.828;9.166;2023-04-15T02:54:35;0.55;;;0.50;;
57891;SDS011;43708;48.828;9.166;2023-04-15T02:57:01;0.82;;;0.50;;
57891;SDS011;43708;48.828;9.166;2023-04-15T02:59:26;0.40;;;0.40;;
57891;SDS011;43708;48.828;9.166;2023-04-15T03:01:52;0.50;;;0.50;;
57891;SDS011;43708;48.828;9.166;2023-04-15T03:04:20;0.40;;;0.20;;
57891;SDS011;43708;48.828;9.166;2023-04-15T03:06:45;0.40;;;0.30;;
57891;SDS011;43708;48.828;9.166;2023-04-15T03:09:12;0.57;;;0.40;;
57891;SDS011;43708;48.828;9.166;2023-04-15T03:11:38;0.50;;;0.40;;
57891;SDS011;43708;48.828;9.166;2023-04-15T03:14:06;0.40;;;0.38;;
57891;SDS011;43708;48.828;9.166;2023-04-15T03:16:31;0.40;;;0.40;;
57891;SDS011;43708;48.828;9.166;2023-04-15T03:18:57;0.40;;;0.40;;
57891;SDS011;43708;48.828;9.166;2023-04-15T03:21:23;0.43;;;0.43;;
57891;SDS011;43708;48.828;9.166;2023-04-15T03:23:48;0.40;;;0.40;;
57891;SDS011;43708;48.828;9.166;2023-04-15T03:26:24;0.50;;;0.40;;
57891;SDS011;43708;48.828;9.166;2023-04-15T03:28:54;0.52;;;0.50;;
57891;SDS011;43708;48.828;9.166;2023-04-15T03:31:21;0.40;;;0.40;;
57891;SDS011;43708;48.828;9.166;2023-04-15T03:33:46;0.45;;;0.45;;
57891;SDS011;43708;48.828;9.166;2023-04-15T03:36:12;0.57;;;0.57;;
57891;SDS011;43708;48.828;9.166;2023-04-15T03:38:38;0.60;;;0.60;;
57891;SDS011;43708;48.828;9.166;2023-04-15T03:41:04;0.50;;;0.40;;
57891;SDS011;43708;48.828;9.166;2023-04-15T03:43:30;0.50;;;0.50;;
57891;SDS011;43708;48.828;9.166;2023-04-15T03:45:55;0.40;;;0.40;;
57891;SDS011;43708;48.828;9.166;2023-04-15T03:48:21;0.32;;;0.32;;
57891;SDS011;43708;48.828;9.166;2023-04-15T03:50:46;0.40;;;0.30;;
57891;SDS011;43708;48.828;9.166;2023-04-15T03:53:12;0.50;;;0.35;;
57891;SDS011;43708;48.828;9.166;2023-04-15T03:55:38;0.93;;;0.43;;
57891;SDS011;43708;48.828;9.166;2023-04-15T03:58:04;0.45;;;0.45;;
57891;SDS011;43708;48.828;9.166;2023-04-15T04:00:30;0.30;;;0.30;;
57891;SDS011;43708;48.828;9.166;2023-04-15T04:02:56;0.60;;;0.50;;
57891;SDS011;43708;48.828;9.166;2023-04-15T04:05:22;0.30;;;0.30;;
57891;SDS011;43708;48.828;9.166;2023-04-15T04:07:48;0.47;;;0.40;;
57891;SDS011;43708;48.828;9.166;2023-04-15T04:10:13;0.40;;;0.40;;
57891;SDS011;43708;48.828;9.166;2023-04-15T04:12:39;0.30;;;0.30;;
57891;SDS011;43708;48.828;9.166;2023-04-15T04:15:05;0.40;;;0.40;;
57891;SDS011;43708;48.828;9.166;2023-04-15T04:17:32;0.50;;;0.50;;
57891;SDS011;43708;48.828;9.166;2023-04-15T04:19:57;0.52;;;0.35;;
57891;SDS011;43708;48.828;9.166;2023-04-15T04:22:23;0.60;;;0.60;;
57891;SDS011;43708;48.828;9.166;2023-04-15T04:24:49;0.60;;;0.40;;
57891;SDS011;43708;48.828;9.166;2023-04-15T04:27:16;0.43;;;0.40;;
57891;SDS011;43708;48.828;9.166;2023-04-15T04:29:42;0.30;;;0.20;;
57891;SDS011;43708;48.828;9.166;2023-04-15T04:32:07;0.40;;;0.35;;
57891;SDS011;43708;48.828;9.166;2023-04-15T04:34:33;0.40;;;0.30;;
57891;SDS011;43708;48.828;9.166;2023-04-15T04:36:59;0.68;;;0.50;;
57891;SDS011;43708;48.828;9.166;2023-04-15T04:39:24;0.60;;;0.60;;
57891;SDS011;43708;48.828;9.166;2023-04-15T04:41:50;0.75;;;0.40;;
57891;SDS011;43708;48.828;9.166;2023-04-15T04:44:18;0.55;;;0.47;;
57891;SDS011;43708;48.828;9.166;2023-04-15T04:46:44;0.50;;;0.50;;
57891;SDS011;43708;48.828;9.166;2023-04-15T04:49:09;0.40;;;0.40;;
57891;SDS011;43708;48.828;9.166;2023-04-15T04:51:35;0.40;;;0.40;;
57891;SDS011;43708;48.828;9.166;2023-04-15T04:54:01;0.77;;;0.40;;
57891;SDS011;43708;48.828;9.166;2023-04-15T04:56:26;0.43;;;0.30;;
57891;SDS011;43708;48.828;9.166;2023-04-15T04:58:52;1.00;;;0.40;;
57891;SDS011;43708;48.828;9.166;2023-04-15T05:01:17;0.65;;;0.50;;
57891;SDS011;43708;48.828;9.166;2023-04-15T05:03:43;0.40;;;0.40;;
57891;SDS011;43708;48.828;9.166;2023-04-15T05:06:09;0.60;;;0.30;;
57891;SDS011;43708;48.828;9.166;2023-04-15T05:08:35;0.43;;;0.40;;
57891;SDS011;43708;48.828;9.166;2023-04-15T05:11:01;0.40;;;0.30;;
57891;SDS011;43708;48.828;9.166;2023-04-15T05:13:27;0.50;;;0.30;;
57891;SDS011;43708;48.828;9.166;2023-04-15T05:15:54;0.52;;;0.30;;
57891;SDS011;43708;48.828;9.166;2023-04-15T05:18:19;0.40;;;0.35;;
57891;SDS011;43708;48.828;9.166;2023-04-15T05:20:45;0.40;;;0.40;;
57891;SDS011;43708;48.828;9.166;2023-04-15T05:23:11;0.40;;;0.40;;
57891;SDS011;43708;48.828;9.166;2023-04-15T05:25:36;0.50;;;0.38;;
57891;SDS011;43708;48.828;9.166;2023-04-15T05:28:02;0.43;;;0.40;;
57891;SDS011;43708;48.828;9.166;2023-04-15T05:30:28;0.43;;;0.43;;
57891;SDS011;43708;48.828;9.166;2023-04-15T05:32:54;0.50;;;0.40;;
57891;SDS011;43708;48.828;9.166;2023-04-15T05:35:20;0.30;;;0.30;;
57891;SDS011;43708;48.828;9.166;2023-04-15T05:37:46;0.30;;;0.30;;
57891;SDS011;43708;48.828;9.166;2023-04-15T05:40:12;0.45;;;0.40;;
57891;SDS011;43708;48.828;9.166;2023-04-15T05:42:38;0.47;;;0.47;;
57891;SDS011;43708;48.828;9.166;2023-04-15T05:45:06;0.50;;;0.50;;
57891;SDS011;43708;48.828;9.166;2023-04-15T05:47:34;0.43;;;0.30;;
57891;SDS011;43708;48.828;9.166;2023-04-15T05:50:02;0.43;;;0.40;;
57891;SDS011;43708;48.828;9.166;2023-04-15T05:52:29;0.50;;;0.47;;
57891;SDS011;43708;48.828;9.166;2023-04-15T05:54:55;0.50;;;0.40;;
57891;SDS011;43708;48.828;9.166;2023-04-15T05:57:22;1.13;;;0.30;;
57891;SDS011;43708;48.828;9.166;2023-04-15T05:59:49;0.30;;;0.30;;
57891;SDS011;43708;48.828;9.166;2023-04-15T06:02:18;1.13;;;0.40;;
57891;SDS011;43708;48.828;9.166;2023-04-15T06:04:43;0.45;;;0.30;;
57891;SDS011;43708;48.828;9.166;2023-04-15T06:07:09;0.50;;;0.47;;
57891;SDS011;43708;48.828;9.166;2023-04-15T06:09:34;0.50;;;0.40;;
57891;SDS011;43708;48.828;9.166;2023-04-15T06:12:00;0.32;;;0.30;;
57891;SDS011;43708;48.828;9.166;2023-04-15T06:14:27;0.40;;;0.40;;
57891;SDS011;43708;48.828;9.166;2023-04-15T06:16:52;0.60;;;0.50;;
57891;SDS011;43708;48.828;9.166;2023-04-15T06:19:18;0.40;;;0.40;;
57891;SDS011;43708;48.828;9.166;2023-04-15T06:21:44;0.50;;;0.43;;
57891;SDS011;43708;48.828;9.166;2023-04-15T06:24:10;0.40;;;0.40;;
57891;SDS011;43708;48.828;9.166;2023-04-15T06:26:36;0.60;;;0.43;;
57891;SDS011;43708;48.828;9.166;2023-04-15T06:29:02;0.43;;;0.38;;
57891;SDS011;43708;48.828;9.166;2023-04-15T06:31:27;0.50;;;0.40;;
57891;SDS011;43708;48.828;9.166;2023-04-15T06:33:53;0.40;;;0.40;;
57891;SDS011;43708;48.828;9.166;2023-04-15T06:36:19;1.60;;;0.60;;
57891;SDS011;43708;48.828;9.166;2023-04-15T06:38:45;0.47;;;0.35;;
57891;SDS011;43708;48.828;9.166;2023-04-15T06:41:10;0.50;;;0.40;;
57891;SDS011;43708;48.828;9.166;2023-04-15T06:43:36;0.43;;;0.40;;
57891;SDS011;43708;48.828;9.166;2023-04-15T06:46:02;0.50;;;0.45;;
57891;SDS011;43708;48.828;9.166;2023-04-15T06:48:27;0.40;;;0.40;;
57891;SDS011;43708;48.828;9.166;2023-04-15T06:50:54;0.30;;;0.30;;
57891;SDS011;43708;48.828;9.166;2023-04-15T06:53:20;1.30;;;0.40;;
57891;SDS011;43708;48.828;9.166;2023-04-15T06:55:46;0.47;;;0.38;;
57891;SDS011;43708;48.828;9.166;2023-04-15T06:58:11;1.30;;;0.35;;
57891;SDS011;43708;48.828;9.166;2023-04-15T07:00:37;1.48;;;0.70;;
57891;SDS011;43708;48.828;9.166;2023-04-15T07:03:03;1.20;;;0.70;;
57891;SDS011;43708;48.828;9.166;2023-04-15T07:05:29;0.43;;;0.43;;
57891;SDS011;43708;48.828;9.166;2023-04-15T07:07:56;0.60;;;0.55;;
57891;SDS011;43708;48.828;9.166;2023-04-15T07:10:22;0.60;;;0.50;;
57891;SDS011;43708;48.828;9.166;2023-04-15T07:12:48;0.40;;;0.40;;
57891;SDS011;43708;48.828;9.166;2023-04-15T07:15:14;0.50;;;0.50;;
57891;SDS011;43708;48.828;9.166;2023-04-15T07:17:40;0.50;;;0.45;;
57891;SDS011;43708;48.828;9.166;2023-04-15T07:20:11;0.70;;;0.60;;
57891;SDS011;43708;48.828;9.166;2023-04-15T07:22:37;0.73;;;0.50;;
57891;SDS011;43708;48.828;9.166;2023-04-15T07:25:05;0.40;;;0.40;;
57891;SDS011;43708;48.828;9.166;2023-04-15T07:27:31;0.30;;;0.30;;
57891;SDS011;43708;48.828;9.166;2023-04-15T07:29:57;0.50;;;0.50;;
57891;SDS011;43708;48.828;9.166;2023-04-15T07:32:23;0.60;;;0.50;;
57891;SDS011;43708;48.828;9.166;2023-04-15T07:34:48;0.52;;;0.40;;
57891;SDS011;43708;48.828;9.166;2023-04-15T07:37:14;0.60;;;0.60;;
57891;SDS011;43708;48.828;9.166;2023-04-15T07:39:40;1.50;;;0.50;;
57891;SDS011;43708;48.828;9.166;2023-04-15T07:42:05;1.13;;;0.50;;
57891;SDS011;43708;48.828;9.166;2023-04-15T07:44:31;0.55;;;0.40;;
57891;SDS011;43708;48.828;9.166;2023-04-15T07:47:01;1.10;;;0.50;;
57891;SDS011;43708;48.828;9.166;2023-04-15T07:49:27;0.50;;;0.50;;
57891;SDS011;43708;48.828;9.166;2023-04-15T07:51:52;0.60;;;0.50;;
57891;SDS011;43708;48.828;9.166;2023-04-15T07:54:18;0.38;;;0.30;;
57891;SDS011;43708;48.828;9.166;2023-04-15T07:56:44;0.63;;;0.50;;
57891;SDS011;43708;48.828;9.166;2023-04-15T07:59:10;0.40;;;0.40;;
57891;SDS011;43708;48.828;9.166;2023-04-15T08:01:35;0.60;;;0.45;;
57891;SDS011;43708;48.828;9.166;2023-04-15T08:04:01;0.50;;;0.50;;
57891;SDS011;43708;48.828;9.166;2023-04-15T08:06:27;1.85;;;0.55;;
57891;SDS011;43708;48.828;9.166;2023-04-15T08:08:53;0.50;;;0.50;;
57891;SDS011;43708;48.828;9.166;2023-04-15T08:11:19;0.65;;;0.40;;
57891;SDS011;43708;48.828;9.166;2023-04-15T08:13:46;0.65;;;0.60;;
57891;SDS011;43708;48.828;9.166;2023-04-15T08:16:24;0.60;;;0.60;;
57891;SDS011;43708;48.828;9.166;2023-04-15T08:18:52;0.63;;;0.60;;
57891;SDS011;43708;48.828;9.166;2023-04-15T08:21:19;1.35;;;0.82;;
57891;SDS011;43708;48.828;9.166;2023-04-15T08:23:45;0.85;;;0.73;;
57891;SDS011;43708;48.828;9.166;2023-04-15T08:26:12;0.70;;;0.40;;
57891;SDS011;43708;48.828;9.166;2023-04-15T08:28:38;0.57;;;0.47;;
57891;SDS011;43708;48.828;9.166;2023-04-15T08:31:05;0.63;;;0.60;;
57891;SDS011;43708;48.828;9.166;2023-04-15T08:33:31;0.70;;;0.50;;
57891;SDS011;43708;48.828;9.166;2023-04-15T08:35:57;0.75;;;0.75;;
57891;SDS011;43708;48.828;9.166;2023-04-15T08:38:22;0.98;;;0.60;;
57891;SDS011;43708;48.828;9.166;2023-04-15T08:40:48;0.60;;;0.60;;
57891;SDS011;43708;48.828;9.166;2023-04-15T08:43:18;1.20;;;0.93;;
57891;SDS011;43708;48.828;9.166;2023-04-15T08:45:52;0.70;;;0.60;;
57891;SDS011;43708;48.828;9.166;2023-04-15T08:48:19;1.45;;;0.80;;
57891;SDS011;43708;48.828;9.166;2023-04-15T08:50:45;1.10;;;0.70;;
57891;SDS011;43708;48.828;9.166;2023-04-15T08:53:11;2.58;;;1.10;;
57891;SDS011;43708;48.828;9.166;2023-04-15T08:55:41;0.60;;;0.60;;
57891;SDS011;43708;48.828;9.166;2023-04-15T08:58:09;0.60;;;0.60;;
57891;SDS011;43708;48.828;9.166;2023-04-15T09:00:36;1.00;;;0.65;;
57891;SDS011;43708;48.828;9.166;2023-04-15T09:03:03;0.52;;;0.52;;
57891;SDS011;43708;48.828;9.166;2023-04-15T09:05:31;0.82;;;0.68;;
57891;SDS011;43708;48.828;9.166;2023-04-15T09:07:57;0.85;;;0.80;;
57891;SDS011;43708;48.828;9.166;2023-04-15T09:10:23;1.35;;;0.73;;
57891;SDS011;43708;48.828;9.166;2023-04-15T09:12:49;0.50;;;0.50;;
57891;SDS011;43708;48.828;9.166;2023-04-15T09:15:14;0.60;;;0.52;;
57891;SDS011;43708;48.828;9.166;2023-04-15T09:17:43;0.95;;;0.65;;
57891;SDS011;43708;48.828;9.166;2023-04-15T09:22:37;1.45;;;0.77;;
57891;SDS011;43708;48.828;9.166;2023-04-15T09:25:16;1.08;;;0.60;;
57891;SDS011;43708;48.828;9.166;2023-04-15T09:27:51;1.02;;;0.65;;
57891;SDS011;43708;48.828;9.166;2023-04-15T09:30:22;1.08;;;0.70;;
57891;SDS011;43708;48.828;9.166;2023-04-15T09:32:52;0.65;;;0.65;;
57891;SDS011;43708;48.828;9.166;2023-04-15T09:35:20;0.60;;;0.60;;
57891;SDS011;43708;48.828;9.166;2023-04-15T09:37:47;0.95;;;0.80;;
57891;SDS011;43708;48.828;9.166;2023-04-15T09:40:14;0.80;;;0.70;;
57891;SDS011;43708;48.828;9.166;2023-04-15T09:42:56;2.03;;;0.82;;
57891;SDS011;43708;48.828;9.166;2023-04-15T09:45:22;1.35;;;0.85;;
57891;SDS011;43708;48.828;9.166;2023-04-15T09:47:48;0.85;;;0.60;;
57891;SDS011;43708;48.828;9.166;2023-04-15T09:50:15;1.00;;;0.80;;
57891;SDS011;43708;48.828;9.166;2023-04-15T09:52:41;0.95;;;0.80;;
57891;SDS011;43708;48.828;9.166;2023-04-15T09:55:07;1.67;;;0.98;;
57891;SDS011;43708;48.828;9.166;2023-04-15T09:57:34;0.80;;;0.68;;
57891;SDS011;43708;48.828;9.166;2023-04-15T10:00:05;1.02;;;0.90;;
57891;SDS011;43708;48.828;9.166;2023-04-15T10:02:35;0.80;;;0.70;;
57891;SDS011;43708;48.828;9.166;2023-04-15T10:05:02;1.10;;;0.80;;
57891;SDS011;43708;48.828;9.166;2023-04-15T10:07:28;0.90;;;0.80;;
57891;SDS011;43708;48.828;9.166;2023-04-15T10:09:54;0.95;;;0.93;;
57891;SDS011;43708;48.828;9.166;2023-04-15T10:12:20;2.28;;;0.65;;
57891;SDS011;43708;48.828;9.166;2023-04-15T10:14:54;0.95;;;0.80;;
57891;SDS011;43708;48.828;9.166;2023-04-15T10:17:23;1.42;;;0.82;;
57891;SDS011;43708;48.828;9.166;2023-04-15T10:19:53;2.83;;;1.00;;
57891;SDS011;43708;48.828;9.166;2023-04-15T10:22:19;1.42;;;0.80;;
57891;SDS011;43708;48.828;9.166;2023-04-15T10:24:47;0.63;;;0.60;;
57891;SDS011;43708;48.828;9.166;2023-04-15T10:27:13;0.65;;;0.63;;
57891;SDS011;43708;48.828;9.166;2023-04-15T10:29:41;1.48;;;0.73;;
57891;SDS011;43708;48.828;9.166;2023-04-15T10:32:07;1.08;;;0.85;;
57891;SDS011;43708;48.828;9.166;2023-04-15T10:34:35;1.98;;;0.90;;
57891;SDS011;43708;48.828;9.166;2023-04-15T10:37:01;1.88;;;0.98;;
57891;SDS011;43708;48.828;9.166;2023-04-15T10:39:41;1.05;;;0.88;;
57891;SDS011;43708;48.828;9.166;2023-04-15T10:42:09;1.60;;;1.02;;
57891;SDS011;43708;48.828;9.166;2023-04-15T10:44:49;1.02;;;0.93;;
57891;SDS011;43708;48.828;9.166;2023-04-15T10:47:16;1.55;;;0.80;;
57891;SDS011;43708;48.828;9.166;2023-04-15T10:49:48;0.98;;;0.85;;
57891;SDS011;43708;48.828;9.166;2023-04-15T10:52:16;2.10;;;1.10;;
57891;SDS011;43708;48.828;9.166;2023-04-15T10:54:48;0.90;;;0.80;;
57891;SDS011;43708;48.828;9.166;2023-04-15T11:05:20;0.90;;;0.80;;
57891;SDS011;43708;48.828;9.166;2023-04-15T11:07:49;1.30;;;0.88;;
57891;SDS011;43708;48.828;9.166;2023-04-15T11:12:42;1.52;;;0.98;;
57891;SDS011;43708;48.828;9.166;2023-04-15T11:20:34;1.10;;;0.63;;
57891;SDS011;43708;48.828;9.166;2023-04-15T11:23:04;1.30;;;0.75;;
57891;SDS011;43708;48.828;9.166;2023-04-15T11:25:31;1.63;;;0.88;;
57891;SDS011;43708;48.828;9.166;2023-04-15T11:28:03;1.15;;;0.73;;
57891;SDS011;43708;48.828;9.166;2023-04-15T11:30:31;2.00;;;0.70;;
57891;SDS011;43708;48.828;9.166;2023-04-15T11:33:02;1.10;;;0.85;;
57891;SDS011;43708;48.828;9.166;2023-04-15T11:35:29;1.92;;;1.02;;
57891;SDS011;43708;48.828;9.166;2023-04-15T11:37:55;1.67;;;0.90;;
57891;SDS011;43708;48.828;9.166;2023-04-15T11:40:22;2.50;;;1.20;;
57891;SDS011;43708;48.828;9.166;2023-04-15T11:43:04;1.35;;;1.00;;
57891;SDS011;43708;48.828;9.166;2023-04-15T11:45:34;1.42;;;1.05;;
57891;SDS011;43708;48.828;9.166;2023-04-15T11:48:10;1.17;;;1.08;;
57891;SDS011;43708;48.828;9.166;2023-04-15T11:50:37;2.33;;;1.15;;
57891;SDS011;43708;48.828;9.166;2023-04-15T11:53:07;1.35;;;1.00;;
57891;SDS011;43708;48.828;9.166;2023-04-15T11:55:41;1.67;;;0.95;;
57891;SDS011;43708;48.828;9.166;2023-04-15T11:58:12;1.65;;;0.95;;
57891;SDS011;43708;48.828;9.166;2023-04-15T12:00:47;1.60;;;1.05;;
57891;SDS011;43708;48.828;9.166;2023-04-15T12:03:27;1.92;;;0.90;;
57891;SDS011;43708;48.828;9.166;2023-04-15T12:14:30;2.53;;;0.82;;
57891;SDS011;43708;48.828;9.166;2023-04-15T12:16:57;1.17;;;0.77;;
57891;SDS011;43708;48.828;9.166;2023-04-15T12:19:30;0.80;;;0.80;;
57891;SDS011;43708;48.828;9.166;2023-04-15T12:22:03;0.80;;;0.80;;
57891;SDS011;43708;48.828;9.166;2023-04-15T12:24:31;1.80;;;1.00;;
57891;SDS011;43708;48.828;9.166;2023-04-15T12:26:59;1.50;;;0.90;;
57891;SDS011;43708;48.828;9.166;2023-04-15T12:29:27;1.33;;;0.80;;
57891;SDS011;43708;48.828;9.166;2023-04-15T12:37:06;1.00;;;0.80;;
57891;SDS011;43708;48.828;9.166;2023-04-15T12:39:34;1.25;;;0.70;;
57891;SDS011;43708;48.828;9.166;2023-04-15T12:42:02;1.42;;;0.88;;
57891;SDS011;43708;48.828;9.166;2023-04-15T12:44:29;1.45;;;0.85;;
57891;SDS011;43708;48.828;9.166;2023-04-15T12:46:55;1.30;;;0.82;;
57891;SDS011;43708;48.828;9.166;2023-04-15T12:49:21;0.82;;;0.75;;
57891;SDS011;43708;48.828;9.166;2023-04-15T12:51:48;2.00;;;0.52;;
57891;SDS011;43708;48.828;9.166;2023-04-15T12:54:16;0.90;;;0.70;;
57891;SDS011;43708;48.828;9.166;2023-04-15T12:56:42;1.17;;;0.75;;
57891;SDS011;43708;48.828;9.166;2023-04-15T12:59:08;0.60;;;0.60;;
57891;SDS011;43708;48.828;9.166;2023-04-15T13:01:33;0.70;;;0.63;;
57891;SDS011;43708;48.828;9.166;2023-04-15T13:04:00;1.02;;;0.60;;
57891;SDS011;43708;48.828;9.166;2023-04-15T13:06:25;0.80;;;0.60;;
57891;SDS011;43708;48.828;9.166;2023-04-15T13:08:51;1.00;;;0.73;;
57891;SDS011;43708;48.828;9.166;2023-04-15T13:11:19;1.15;;;0.65;;
57891;SDS011;43708;48.828;9.166;2023-04-15T13:13:47;0.60;;;0.50;;
57891;SDS011;43708;48.828;9.166;2023-04-15T13:16:13;1.40;;;0.50;;
57891;SDS011;43708;48.828;9.166;2023-04-15T13:18:39;0.75;;;0.70;;
57891;SDS011;43708;48.828;9.166;2023-04-15T13:21:05;0.77;;;0.60;;
57891;SDS011;43708;48.828;9.166;2023-04-15T13:23:31;1.30;;;0.77;;
57891;SDS011;43708;48.828;9.166;2023-04-15T13:25:57;0.85;;;0.77;;
57891;SDS011;43708;48.828;9.166;2023-04-15T13:28:23;0.70;;;0.70;;
57891;SDS011;43708;48.828;9.166;2023-04-15T13:30:48;1.05;;;0.60;;
57891;SDS011;43708;48.828;9.166;2023-04-15T13:33:15;0.50;;;0.50;;
57891;SDS011;43708;48.828;9.166;2023-04-15T13:35:42;0.60;;;0.40;;
57891;SDS011;43708;48.828;9.166;2023-04-15T13:38:07;0.75;;;0.55;;
57891;SDS011;43708;48.828;9.166;2023-04-15T13:40:33;1.02;;;0.60;;
57891;SDS011;43708;48.828;9.166;2023-04-15T13:42:59;0.60;;;0.60;;
57891;SDS011;43708;48.828;9.166;2023-04-15T13:45:25;1.42;;;0.60;;
57891;SDS011;43708;48.828;9.166;2023-04-15T13:47:51;0.77;;;0.60;;
57891;SDS011;43708;48.828;9.166;2023-04-15T13:50:17;0.93;;;0.68;;
57891;SDS011;43708;48.828;9.166;2023-04-15T13:52:43;0.70;;;0.45;;
57891;SDS011;43708;48.828;9.166;2023-04-15T13:55:09;0.68;;;0.50;;
57891;SDS011;43708;48.828;9.166;2023-04-15T13:57:34;1.50;;;0.45;;
57891;SDS011;43708;48.828;9.166;2023-04-15T14:00:00;0.68;;;0.60;;
57891;SDS011;43708;48.828;9.166;2023-04-15T14:02:28;0.50;;;0.50;;
57891;SDS011;43708;48.828;9.166;2023-04-15T14:04:54;0.98;;;0.50;;
57891;SDS011;43708;48.828;9.166;2023-04-15T14:07:20;0.82;;;0.60;;
57891;SDS011;43708;48.828;9.166;2023-04-15T14:09:45;0.77;;;0.57;;
57891;SDS011;43708;48.828;9.166;2023-04-15T14:12:12;0.50;;;0.45;;
57891;SDS011;43708;48.828;9.166;2023-04-15T14:14:37;0.50;;;0.50;;
57891;SDS011;43708;48.828;9.166;2023-04-15T14:17:03;0.50;;;0.50;;
57891;SDS011;43708;48.828;9.166;2023-04-15T14:19:29;0.57;;;0.50;;
57891;SDS011;43708;48.828;9.166;2023-04-15T14:21:55;1.58;;;0.40;;
57891;SDS011;43708;48.828;9.166;2023-04-15T14:24:21;0.85;;;0.50;;
57891;SDS011;43708;48.828;9.166;2023-04-15T14:26:47;1.02;;;0.47;;
57891;SDS011;43708;48.828;9.166;2023-04-15T14:29:12;1.00;;;0.50;;
57891;SDS011;43708;48.828;9.166;2023-04-15T14:31:38;1.23;;;0.70;;
57891;SDS011;43708;48.828;9.166;2023-04-15T14:34:08;0.77;;;0.68;;
57891;SDS011;43708;48.828;9.166;2023-04-15T14:36:35;1.35;;;0.80;;
57891;SDS011;43708;48.828;9.166;2023-04-15T14:39:00;0.80;;;0.70;;
57891;SDS011;43708;48.828;9.166;2023-04-15T14:41:27;1.58;;;0.68;;
57891;SDS011;43708;48.828;9.166;2023-04-15T14:43:53;1.17;;;0.70;;
57891;SDS011;43708;48.828;9.166;2023-04-15T14:46:19;0.60;;;0.60;;
57891;SDS011;43708;48.828;9.166;2023-04-15T14:48:44;1.30;;;0.70;;
57891;SDS011;43708;48.828;9.166;2023-04-15T14:51:10;0.98;;;0.70;;
57891;SDS011;43708;48.828;9.166;2023-04-15T14:53:36;0.75;;;0.65;;
57891;SDS011;43708;48.828;9.166;2023-04-15T14:56:01;0.90;;;0.80;;
57891;SDS011;43708;48.828;9.166;2023-04-15T14:58:27;1.88;;;0.73;;
57891;SDS011;43708;48.828;9.166;2023-04-15T15:00:52;0.80;;;0.70;;
57891;SDS011;43708;48.828;9.166;2023-04-15T15:03:18;1.85;;;0.63;;
57891;SDS011;43708;48.828;9.166;2023-04-15T15:05:44;2.00;;;0.77;;
57891;SDS011;43708;48.828;9.166;2023-04-15T15:08:11;0.82;;;0.80;;
57891;SDS011;43708;48.828;9.166;2023-04-15T15:10:38;1.05;;;0.80;;
57891;SDS011;43708;48.828;9.166;2023-04-15T15:13:04;1.45;;;0.88;;
57891;SDS011;43708;48.828;9.166;2023-04-15T15:15:32;0.60;;;0.60;;
57891;SDS011;43708;48.828;9.166;2023-04-15T15:17:58;0.88;;;0.68;;
57891;SDS011;43708;48.828;9.166;2023-04-15T15:20:24;2.17;;;0.82;;